createdAt,value
2018-03-29T00:01:38.552Z,16.17
2018-03-29T00:03:40.029Z,18.52
2018-03-29T00:05:41.158Z,17.23
2018-03-29T00:07:42.217Z,17.00
2018-03-29T00:09:43.328Z,15.93
2018-03-29T00:11:44.438Z,15.27
2018-03-29T00:13:46.458Z,15.75
2018-03-29T00:15:47.689Z,16.12
2018-03-29T00:17:49.253Z,16.70
2018-03-29T00:19:50.416Z,14.80
2018-03-29T00:21:51.582Z,17.15
2018-03-29T00:23:53.053Z,16.83
2018-03-29T00:25:54.513Z,16.08
2018-03-29T00:27:55.634Z,16.00
2018-03-29T00:29:56.838Z,15.65
2018-03-29T00:31:57.999Z,16.98
2018-03-29T00:33:59.181Z,16.00
2018-03-29T00:36:00.298Z,15.32
2018-03-29T00:38:01.466Z,15.77
2018-03-29T00:40:03.055Z,14.43
2018-03-29T00:42:04.274Z,14.80
2018-03-29T00:44:05.751Z,13.50
2018-03-29T00:46:06.846Z,14.77
2018-03-29T00:50:16.526Z,24.00
2018-03-29T00:52:17.648Z,32.58
2018-03-29T00:54:18.892Z,33.97
2018-03-29T00:56:21.247Z,20.95
2018-03-29T00:58:23.500Z,15.73
2018-03-29T01:00:25.564Z,14.43
2018-03-29T01:02:27.346Z,14.50
2018-03-29T01:04:29.743Z,15.18
2018-03-29T01:06:30.866Z,13.73
2018-03-29T01:08:32.778Z,13.32
2018-03-29T01:10:34.240Z,13.38
2018-03-29T01:12:36.490Z,14.23
2018-03-29T01:14:37.568Z,14.55
2018-03-29T01:16:38.649Z,13.80
2018-03-29T01:18:39.766Z,13.45
2018-03-29T01:20:41.161Z,14.20
2018-03-29T01:22:42.342Z,12.90
2018-03-29T01:24:43.545Z,15.05
2018-03-29T01:26:44.644Z,14.90
2018-03-29T01:28:45.760Z,14.20
2018-03-29T01:30:47.234Z,13.15
2018-03-29T01:32:48.374Z,12.63
2018-03-29T01:34:49.640Z,14.55
2018-03-29T01:36:51.492Z,14.23
2018-03-29T01:38:53.995Z,14.13
2018-03-29T01:40:56.428Z,13.15
2018-03-29T01:42:57.587Z,13.68
2018-03-29T01:44:59.037Z,12.45
2018-03-29T01:47:00.557Z,13.95
2018-03-29T01:49:02.128Z,12.98
2018-03-29T01:51:03.393Z,12.88
2018-03-29T01:53:05.206Z,14.07
2018-03-29T01:55:06.508Z,14.23
2018-03-29T01:57:07.605Z,13.93
2018-03-29T01:59:09.345Z,12.77
2018-03-29T02:01:11.532Z,14.05
2018-03-29T02:03:13.061Z,14.10
2018-03-29T02:05:14.569Z,13.25
2018-03-29T02:07:15.681Z,13.13
2018-03-29T02:09:16.833Z,13.23
2018-03-29T02:11:17.980Z,13.60
2018-03-29T02:13:19.083Z,13.23
2018-03-29T02:15:20.597Z,13.18
2018-03-29T02:17:21.660Z,14.35
2018-03-29T02:19:23.149Z,13.40
2018-03-29T02:21:24.270Z,14.57
2018-03-29T02:23:25.369Z,14.07
2018-03-29T02:25:26.722Z,13.98
2018-03-29T02:27:28.294Z,13.93
2018-03-29T02:29:29.443Z,13.60
2018-03-29T02:31:31.100Z,14.02
2018-03-29T02:33:32.280Z,14.18
2018-03-29T02:35:33.748Z,14.60
2018-03-29T02:37:34.876Z,13.95
2018-03-29T02:39:36.380Z,12.40
2018-03-29T02:41:37.518Z,13.80
2018-03-29T02:43:39.618Z,14.63
2018-03-29T02:45:42.419Z,14.45
2018-03-29T02:47:44.675Z,14.57
2018-03-29T02:49:46.495Z,13.10
2018-03-29T02:51:47.646Z,15.48
2018-03-29T02:53:48.697Z,14.07
2018-03-29T02:55:50.831Z,16.30
2018-03-29T03:00:19.767Z,16.67
2018-03-29T03:02:22.710Z,15.52
2018-03-29T03:04:23.845Z,18.10
2018-03-29T03:06:24.985Z,17.65
2018-03-29T03:08:26.396Z,16.15
2018-03-29T03:10:27.505Z,16.55
2018-03-29T03:12:29.156Z,16.20
2018-03-29T03:14:30.316Z,14.85
2018-03-29T03:16:31.544Z,15.70
2018-03-29T03:18:32.798Z,15.30
2018-03-29T03:20:33.973Z,15.32
2018-03-29T03:22:35.558Z,16.92
2018-03-29T03:24:36.702Z,16.37
2018-03-29T03:26:39.722Z,16.30
2018-03-29T03:28:42.349Z,14.93
2018-03-29T03:30:43.576Z,15.77
2018-03-29T03:32:46.579Z,17.23
2018-03-29T03:34:48.058Z,17.17
2018-03-29T03:36:49.136Z,16.58
2018-03-29T03:38:50.241Z,16.73
2018-03-29T03:40:53.113Z,16.33
2018-03-29T03:42:55.328Z,16.42
2018-03-29T03:44:56.380Z,17.10
2018-03-29T03:46:57.818Z,17.30
2018-03-29T03:48:58.861Z,17.52
2018-03-29T03:51:00.285Z,17.23
2018-03-29T03:53:02.473Z,15.77
2018-03-29T03:55:04.764Z,15.05
2018-03-29T03:57:05.923Z,16.40
2018-03-29T03:59:07.777Z,14.02
2018-03-29T04:01:10.052Z,15.32
2018-03-29T04:03:11.767Z,15.35
2018-03-29T04:05:12.902Z,35.20
2018-03-29T04:07:14.096Z,32.83
2018-03-29T04:09:15.229Z,39.45
2018-03-29T04:11:16.301Z,18.75
2018-03-29T04:13:17.781Z,17.35
2018-03-29T04:15:18.873Z,16.30
2018-03-29T04:17:20.724Z,15.82
2018-03-29T04:19:22.857Z,15.20
2018-03-29T04:21:23.973Z,15.02
2018-03-29T04:23:25.182Z,15.93
2018-03-29T04:25:26.717Z,15.23
2018-03-29T04:27:27.868Z,15.13
2018-03-29T04:29:29.516Z,15.60
2018-03-29T04:31:31.167Z,15.35
2018-03-29T04:33:32.258Z,14.80
2018-03-29T04:35:33.346Z,14.65
2018-03-29T04:37:34.821Z,15.63
2018-03-29T04:39:36.540Z,16.02
2018-03-29T04:41:37.985Z,14.18
2018-03-29T04:43:39.453Z,14.68
2018-03-29T04:45:40.619Z,14.20
2018-03-29T04:47:42.152Z,13.75
2018-03-29T04:49:43.276Z,14.15
2018-03-29T04:51:44.414Z,14.13
2018-03-29T04:53:45.965Z,14.02
2018-03-29T04:55:47.064Z,14.87
2018-03-29T04:57:48.141Z,14.60
2018-03-29T04:59:49.202Z,14.45
2018-03-29T05:01:50.257Z,13.85
2018-03-29T05:03:51.300Z,14.43
2018-03-29T05:05:52.386Z,15.38
2018-03-29T05:07:53.509Z,14.93
2018-03-29T05:09:54.589Z,18.50
2018-03-29T05:11:55.716Z,16.08
2018-03-29T05:13:56.806Z,14.15
2018-03-29T05:15:59.113Z,16.10
2018-03-29T05:18:01.505Z,15.63
2018-03-29T05:20:03.886Z,16.23
2018-03-29T05:22:09.305Z,14.73
2018-03-29T05:24:12.144Z,15.25
2018-03-29T05:26:13.675Z,28.90
2018-03-29T05:28:14.858Z,20.15
2018-03-29T05:30:15.912Z,19.40
2018-03-29T05:32:16.963Z,16.73
2018-03-29T05:34:18.194Z,16.33
2018-03-29T05:36:19.312Z,15.32
2018-03-29T05:38:21.188Z,17.60
2018-03-29T05:40:23.038Z,15.25
2018-03-29T05:42:24.238Z,15.13
2018-03-29T05:44:25.387Z,15.88
2018-03-29T05:46:26.778Z,16.95
2018-03-29T05:48:28.628Z,17.00
2018-03-29T05:50:29.783Z,16.10
2018-03-29T05:52:31.213Z,16.12
2018-03-29T05:54:32.419Z,17.98
2018-03-29T05:56:34.557Z,17.37
2018-03-29T05:58:35.626Z,28.27
2018-03-29T06:00:36.693Z,21.85
2018-03-29T06:02:37.833Z,20.58
2018-03-29T06:04:39.852Z,33.78
2018-03-29T06:06:47.516Z,19.87
2018-03-29T06:08:52.516Z,17.05
2018-03-29T06:10:54.413Z,16.05
2018-03-29T06:12:59.570Z,16.52
2018-03-29T06:15:04.992Z,16.50
2018-03-29T06:17:07.539Z,18.80
2018-03-29T06:19:09.849Z,17.05
2018-03-29T06:21:10.946Z,17.77
2018-03-29T06:23:16.160Z,14.95
2018-03-29T06:25:17.154Z,16.00
2018-03-29T06:27:22.185Z,17.95
2018-03-29T06:29:26.753Z,17.30
2018-03-29T06:31:32.619Z,18.17
2018-03-29T06:33:37.928Z,18.02
2018-03-29T06:35:41.069Z,17.05
2018-03-29T06:37:45.472Z,17.77
2018-03-29T06:39:47.891Z,18.85
2018-03-29T06:41:57.056Z,19.40
2018-03-29T06:43:58.219Z,19.70
2018-03-29T06:46:05.683Z,18.95
2018-03-29T06:48:09.020Z,19.23
2018-03-29T06:53:24.334Z,18.65
2018-03-29T06:55:28.275Z,18.70
2018-03-29T06:57:34.097Z,18.20
2018-03-29T06:59:36.425Z,20.37
2018-03-29T07:01:41.040Z,17.00
2018-03-29T07:03:43.671Z,34.42
2018-03-29T07:05:46.524Z,26.65
2018-03-29T07:07:49.739Z,24.67
2018-03-29T07:09:52.241Z,27.23
2018-03-29T07:11:58.598Z,23.25
2018-03-29T07:14:00.685Z,23.52
2018-03-29T07:16:02.224Z,22.02
2018-03-29T07:18:08.882Z,24.33
2018-03-29T07:20:15.957Z,25.95
2018-03-29T07:22:20.340Z,21.70
2018-03-29T07:24:23.429Z,23.70
2018-03-29T07:26:27.049Z,30.42
2018-03-29T07:28:33.588Z,27.55
2018-03-29T07:30:36.930Z,22.90
2018-03-29T07:32:42.104Z,23.25
2018-03-29T07:34:43.221Z,20.45
2018-03-29T07:36:50.016Z,19.05
2018-03-29T07:38:51.132Z,21.30
2018-03-29T07:40:53.501Z,20.85
2018-03-29T07:42:56.347Z,18.62
2018-03-29T07:45:02.158Z,18.87
2018-03-29T07:47:05.713Z,19.40
2018-03-29T07:49:09.129Z,18.55
2018-03-29T07:51:14.920Z,18.92
2018-03-29T07:53:17.004Z,19.33
2018-03-29T07:55:23.332Z,17.62
2018-03-29T07:59:35.399Z,18.58
2018-03-29T08:01:38.473Z,17.42
2018-03-29T08:03:41.893Z,19.45
2018-03-29T08:05:45.840Z,17.20
2018-03-29T08:07:47.334Z,17.33
2018-03-29T08:09:53.824Z,19.37
2018-03-29T08:11:54.976Z,20.92
2018-03-29T08:14:00.262Z,19.70
2018-03-29T08:16:07.145Z,20.33
2018-03-29T08:18:12.317Z,18.80
2018-03-29T08:20:14.337Z,20.83
2018-03-29T08:22:18.650Z,20.33
2018-03-29T08:24:23.618Z,19.83
2018-03-29T08:26:28.892Z,20.02
2018-03-29T08:28:29.978Z,19.92
2018-03-29T08:30:36.614Z,20.92
2018-03-29T08:32:40.927Z,21.05
2018-03-29T08:34:44.415Z,23.65
2018-03-29T08:36:49.462Z,21.55
2018-03-29T08:38:53.908Z,20.88
2018-03-29T08:40:55.672Z,22.23
2018-03-29T08:42:57.377Z,24.05
2018-03-29T08:45:01.345Z,22.40
2018-03-29T08:47:06.179Z,22.17
2018-03-29T08:49:11.709Z,21.55
2018-03-29T08:51:19.648Z,22.08
2018-03-29T08:53:21.793Z,22.45
2018-03-29T08:55:28.616Z,22.40
2018-03-29T08:57:40.691Z,22.62
2018-03-29T08:59:44.974Z,20.12
2018-03-29T09:01:50.111Z,19.77
2018-03-29T09:03:54.970Z,20.42
2018-03-29T09:06:09.398Z,20.65
2018-03-29T09:08:16.565Z,20.27
2018-03-29T09:12:48.370Z,20.62
2018-03-29T09:14:59.320Z,20.42
2018-03-29T09:17:10.151Z,20.67
2018-03-29T09:19:15.604Z,21.75
2018-03-29T09:23:33.231Z,19.25
2018-03-29T09:25:38.349Z,18.00
2018-03-29T09:27:43.426Z,20.40
2018-03-29T09:29:45.620Z,20.17
2018-03-29T09:31:50.685Z,17.90
2018-03-29T09:34:03.586Z,19.52
2018-03-29T09:36:16.752Z,17.70
2018-03-29T09:41:04.634Z,18.58
2018-03-29T09:43:16.817Z,19.08
2018-03-29T11:57:42.851Z,19.55
2018-03-29T12:02:11.265Z,21.30
2018-03-29T12:04:14.641Z,20.52
2018-03-29T12:06:22.834Z,20.65
2018-03-29T12:08:29.536Z,18.83
2018-03-29T12:10:36.398Z,19.87
2018-03-29T12:12:46.189Z,20.35
2018-03-29T12:14:53.656Z,20.10
2018-03-29T12:17:04.006Z,20.55
2018-03-29T12:19:12.719Z,21.65
2018-03-29T12:21:21.137Z,21.77
2018-03-29T12:23:28.963Z,21.27
2018-03-29T12:25:38.300Z,20.83
2018-03-29T12:27:40.511Z,21.62
2018-03-29T12:29:52.091Z,21.52
2018-03-29T12:31:55.673Z,20.62
2018-03-29T12:38:55.833Z,22.30
2018-03-29T12:41:04.554Z,21.02
2018-03-29T12:47:52.510Z,21.85
2018-03-29T12:49:53.692Z,21.25
2018-03-29T12:57:18.621Z,20.10
2018-03-29T12:59:38.265Z,19.83
2018-03-29T13:01:52.728Z,21.67
2018-03-29T13:04:32.710Z,21.05
2018-03-29T13:07:11.604Z,19.45
2018-03-29T13:14:11.875Z,17.70
2018-03-29T15:16:51.245Z,17.05
2018-03-29T15:19:07.010Z,36.53
2018-03-29T15:21:14.686Z,29.25
2018-03-29T15:23:24.945Z,25.65
2018-03-29T15:25:30.161Z,21.80
2018-03-29T15:27:43.242Z,20.12
2018-03-29T15:32:03.520Z,18.48
2018-03-29T15:34:11.475Z,19.25
2018-03-29T15:36:25.178Z,19.85
2018-03-29T15:38:35.608Z,20.00
2018-03-29T15:40:45.821Z,18.50
2018-03-29T15:42:55.460Z,19.20
2018-03-29T15:45:08.061Z,25.83
2018-03-29T15:47:16.934Z,23.98
2018-03-29T15:51:51.765Z,20.42
2018-03-29T15:53:53.517Z,20.10
2018-03-29T15:55:57.774Z,21.52
2018-03-29T15:58:13.127Z,20.00
2018-03-29T16:00:23.968Z,19.67
2018-03-29T16:02:34.835Z,20.80
2018-03-29T16:04:44.278Z,19.62
2018-03-29T16:09:08.937Z,20.10
2018-03-29T16:11:17.254Z,20.27
2018-03-29T16:13:25.633Z,19.55
2018-03-29T16:17:58.630Z,18.60
2018-03-29T16:20:10.237Z,20.23
2018-03-29T16:22:20.897Z,21.23
2018-03-29T16:24:33.142Z,19.23
2018-03-29T16:26:42.009Z,20.25
2018-03-29T16:28:51.624Z,24.52
2018-03-29T16:44:03.706Z,17.30
2018-03-29T16:46:04.904Z,17.17
2018-03-29T16:48:07.489Z,17.42
2018-03-29T16:50:09.594Z,16.98
2018-03-29T16:52:12.136Z,18.30
2018-03-29T16:54:15.348Z,17.35
2018-03-29T16:56:16.320Z,17.00
2018-03-29T16:58:17.295Z,16.10
2018-03-29T17:00:18.539Z,15.90
2018-03-29T17:02:41.766Z,15.93
2018-03-29T17:04:42.920Z,15.98
2018-03-29T17:06:43.976Z,15.23
2018-03-29T17:08:44.967Z,14.63
2018-03-29T17:10:45.970Z,40.03
2018-03-29T17:12:47.377Z,30.65
2018-03-29T17:14:48.422Z,30.50
2018-03-29T17:16:49.474Z,26.55
2018-03-29T17:18:50.508Z,21.37
2018-03-29T17:20:51.509Z,19.23
2018-03-29T17:22:52.921Z,23.62
2018-03-29T17:24:53.929Z,19.12
2018-03-29T17:26:54.917Z,16.73
2018-03-29T17:28:55.927Z,29.92
2018-03-29T17:30:57.484Z,43.60
2018-03-29T17:32:58.491Z,43.85
2018-03-29T17:34:59.869Z,28.05
2018-03-29T17:37:00.925Z,16.10
2018-03-29T17:39:01.925Z,15.82
2018-03-29T17:41:02.981Z,14.80
2018-03-29T17:43:05.192Z,15.48
2018-03-29T17:45:06.304Z,15.70
2018-03-29T17:47:07.334Z,20.92
2018-03-29T17:49:08.337Z,17.10
2018-03-29T17:51:09.407Z,17.62
2018-03-29T17:53:10.488Z,13.80
2018-03-29T17:55:11.938Z,13.93
2018-03-29T17:57:13.704Z,13.02
2018-03-29T17:59:14.719Z,13.27
2018-03-29T18:01:15.831Z,13.50
2018-03-29T18:03:16.843Z,13.50
2018-03-29T18:05:17.981Z,12.40
2018-03-29T18:07:18.956Z,12.25
2018-03-29T18:09:20.033Z,12.40
2018-03-29T18:11:21.323Z,11.35
2018-03-29T18:13:22.589Z,12.73
2018-03-29T18:15:24.141Z,13.43
2018-03-29T18:17:25.549Z,12.32
2018-03-29T18:19:27.232Z,14.07
2018-03-29T18:21:35.298Z,14.48
2018-03-29T18:23:36.592Z,12.75
2018-03-29T18:25:38.718Z,11.55
2018-03-29T18:27:39.945Z,12.35
2018-03-29T18:29:40.988Z,11.82
2018-03-29T18:31:42.077Z,11.88
2018-03-29T18:33:43.192Z,10.40
2018-03-29T18:35:44.963Z,10.73
2018-03-29T18:37:45.942Z,11.60
2018-03-29T18:39:46.954Z,12.80
2018-03-29T18:42:13.152Z,11.88
2018-03-29T18:44:14.505Z,15.00
2018-03-29T18:46:16.483Z,16.27
2018-03-29T18:48:17.544Z,14.95
2018-03-29T18:50:18.593Z,16.65
2018-03-29T18:52:19.671Z,14.07
2018-03-29T18:54:20.660Z,13.93
2018-03-29T18:56:21.736Z,12.82
2018-03-29T18:58:23.152Z,13.15
2018-03-29T19:00:25.038Z,13.32
2018-03-29T19:02:26.550Z,12.52
2018-03-29T19:04:27.694Z,12.07
2018-03-29T19:06:28.854Z,12.65
2018-03-29T19:08:30.344Z,12.70
2018-03-29T19:10:31.450Z,51.75
2018-03-29T19:12:32.973Z,25.85
2018-03-29T19:14:34.396Z,15.23
2018-03-29T19:16:35.500Z,14.38
2018-03-29T19:18:37.418Z,11.60
2018-03-29T19:20:39.074Z,10.98
2018-03-29T19:22:40.261Z,11.15
2018-03-29T19:24:41.509Z,11.30
2018-03-29T19:26:42.714Z,12.73
2018-03-29T19:28:44.153Z,12.35
2018-03-29T19:30:45.858Z,12.30
2018-03-29T19:32:47.774Z,13.45
2018-03-29T19:34:48.916Z,12.35
2018-03-29T19:36:50.257Z,14.13
2018-03-29T19:38:51.431Z,12.52
2018-03-29T19:40:52.938Z,12.70
2018-03-29T19:42:54.782Z,12.63
2018-03-29T19:44:56.536Z,12.75
2018-03-29T19:46:57.651Z,12.43
2018-03-29T19:48:58.814Z,12.80
2018-03-29T19:51:00.407Z,12.93
2018-03-29T19:53:01.543Z,13.27
2018-03-29T19:55:03.287Z,13.15
2018-03-29T19:57:04.408Z,13.52
2018-03-29T19:59:05.515Z,14.00
2018-03-29T20:01:07.949Z,13.93
2018-03-29T20:03:09.482Z,13.38
2018-03-29T20:05:13.106Z,12.98
2018-03-29T20:07:14.956Z,13.77
2018-03-29T20:09:16.114Z,13.75
2018-03-29T20:11:17.257Z,14.13
2018-03-29T20:13:18.499Z,13.05
2018-03-29T20:15:20.097Z,13.25
2018-03-29T20:17:22.053Z,15.55
2018-03-29T20:19:23.244Z,15.23
2018-03-29T20:21:24.474Z,15.13
2018-03-29T20:23:26.124Z,16.55
2018-03-29T20:25:27.662Z,18.55
2018-03-29T20:27:29.038Z,18.70
2018-03-29T20:29:30.180Z,17.48
2018-03-29T20:31:31.195Z,17.70
2018-03-29T20:33:32.232Z,17.25
2018-03-29T20:35:33.413Z,106.05
2018-03-29T20:37:34.402Z,57.38
2018-03-29T20:39:35.449Z,23.10
2018-03-29T20:41:36.912Z,21.42
2018-03-29T20:43:37.982Z,18.15
2018-03-29T20:45:38.993Z,17.48
2018-03-29T20:47:39.980Z,16.65
2018-03-29T20:49:40.980Z,16.42
2018-03-29T20:51:41.990Z,17.27
2018-03-29T20:53:42.990Z,17.02
2018-03-29T20:55:44.008Z,16.77
2018-03-29T20:57:45.020Z,16.87
2018-03-29T20:59:46.026Z,16.10
2018-03-29T21:01:47.392Z,17.10
2018-03-29T21:03:48.437Z,15.95
2018-03-29T21:05:49.443Z,15.65
2018-03-29T21:07:50.472Z,15.57
2018-03-29T21:09:51.421Z,27.90
2018-03-29T21:11:52.431Z,96.57
2018-03-29T21:13:53.907Z,62.28
2018-03-29T21:15:54.900Z,44.00
2018-03-29T21:17:57.244Z,28.70
2018-03-29T21:20:08.446Z,19.08
2018-03-29T21:22:10.967Z,18.42
2018-03-29T21:24:12.162Z,17.30
2018-03-29T21:26:14.645Z,16.87
2018-03-29T21:28:17.634Z,17.37
2018-03-29T21:30:18.649Z,20.67
2018-03-29T21:32:19.677Z,22.33
2018-03-29T21:34:20.681Z,20.12
2018-03-29T21:36:21.675Z,18.08
2018-03-29T21:38:22.676Z,16.95
2018-03-29T21:40:23.684Z,17.27
2018-03-29T21:42:24.749Z,17.05
2018-03-29T21:44:25.924Z,17.00
2018-03-29T21:46:26.873Z,16.95
2018-03-29T21:48:27.907Z,17.45
2018-03-29T21:50:28.914Z,16.70
2018-03-29T21:52:30.271Z,19.12
2018-03-29T21:54:31.653Z,19.58
2018-03-29T21:56:32.628Z,18.58
2018-03-29T21:58:33.981Z,18.73
2018-03-29T22:00:35.349Z,19.83
2018-03-29T22:02:36.335Z,19.02
2018-03-29T22:04:37.372Z,20.15
2018-03-29T22:06:38.352Z,19.98
2018-03-29T22:08:39.329Z,19.87
2018-03-29T22:10:40.369Z,20.05
2018-03-29T22:12:41.344Z,19.92
2018-03-29T22:14:42.323Z,20.20
2018-03-29T22:16:43.409Z,20.55
2018-03-29T22:18:44.857Z,20.55
2018-03-29T22:20:46.228Z,19.10
2018-03-29T22:22:47.218Z,20.48
2018-03-29T22:24:48.240Z,19.30
2018-03-29T22:26:49.597Z,19.20
2018-03-29T22:28:50.813Z,18.12
2018-03-29T22:30:51.780Z,20.30
2018-03-29T22:32:53.128Z,19.63
2018-03-29T22:34:54.499Z,20.12
2018-03-29T22:36:55.491Z,19.45
2018-03-29T22:38:56.472Z,20.20
2018-03-29T22:40:57.460Z,20.15
2018-03-29T22:42:58.497Z,22.10
2018-03-29T22:44:59.525Z,23.60
2018-03-29T22:47:00.524Z,21.48
2018-03-29T22:49:01.534Z,22.92
2018-03-29T22:51:02.912Z,21.95
2018-03-29T22:53:03.897Z,21.48
2018-03-29T22:55:05.251Z,25.35
2018-03-29T22:57:06.704Z,22.95
2018-03-29T22:59:14.807Z,19.83
2018-03-29T23:01:16.052Z,21.80
2018-03-29T23:03:17.032Z,22.05
2018-03-29T23:05:18.021Z,21.40
2018-03-29T23:07:19.025Z,23.05
2018-03-29T23:09:20.024Z,23.02
2018-03-29T23:11:21.010Z,22.08
2018-03-29T23:13:22.364Z,22.95
2018-03-29T23:15:23.372Z,23.45
2018-03-29T23:17:24.366Z,23.30
2018-03-29T23:19:25.358Z,24.87
2018-03-29T23:21:26.728Z,23.10
2018-03-29T23:23:27.737Z,22.67
2018-03-29T23:25:29.125Z,24.17
2018-03-29T23:27:30.100Z,22.98
2018-03-29T23:29:31.213Z,23.73
2018-03-29T23:31:32.276Z,114.40
2018-03-29T23:33:33.285Z,80.07
2018-03-29T23:35:34.280Z,59.70
2018-03-29T23:37:35.369Z,36.53
2018-03-29T23:39:36.368Z,29.75
2018-03-29T23:41:37.344Z,24.87
2018-03-29T23:43:38.336Z,25.10
2018-03-29T23:45:39.692Z,26.15
2018-03-29T23:47:40.668Z,24.42
2018-03-29T23:49:42.037Z,23.30
2018-03-29T23:51:43.008Z,22.90
2018-03-29T23:53:43.998Z,23.87
2018-03-29T23:55:45.435Z,23.08
2018-03-29T23:57:46.377Z,24.23
2018-03-29T23:59:47.825Z,22.30
